sensor_id;sensor_type;location;lat;lon;timestamp;pressure;altitude;pressure_sealevel;temperature;humidity
82171;BME280;71755;48.038;14.346;2023-11-21T00:02:21;96924.44;;;7.04;81.72
82171;BME280;71755;48.038;14.346;2023-11-21T00:04:47;96919.41;;;6.90;81.93
82171;BME280;71755;48.038;14.346;2023-11-21T00:07:13;96919.66;;;6.89;81.82
82171;BME280;71755;48.038;14.346;2023-11-21T00:09:40;96921.75;;;6.87;82.53
82171;BME280;71755;48.038;14.346;2023-11-21T00:12:07;96919.56;;;6.84;82.95
82171;BME280;71755;48.038;14.346;2023-11-21T00:14:38;96914.50;;;6.82;83.02
82171;BME280;71755;48.038;14.346;2023-11-21T00:17:04;96914.97;;;6.79;83.16
82171;BME280;71755;48.038;14.346;2023-11-21T00:19:31;96915.19;;;6.78;83.21
82171;BME280;71755;48.038;14.346;2023-11-21T00:21:56;96909.09;;;6.77;83.11
82171;BME280;71755;48.038;14.346;2023-11-21T00:24:24;96903.78;;;6.77;83.33
82171;BME280;71755;48.038;14.346;2023-11-21T00:26:50;96894.69;;;6.73;83.69
82171;BME280;71755;48.038;14.346;2023-11-21T00:29:16;96895.16;;;6.70;84.02
82171;BME280;71755;48.038;14.346;2023-11-21T00:31:43;96898.25;;;6.67;84.10
82171;BME280;71755;48.038;14.346;2023-11-21T00:34:10;96902.06;;;6.71;83.93
82171;BME280;71755;48.038;14.346;2023-11-21T00:36:36;96899.75;;;6.63;83.89
82171;BME280;71755;48.038;14.346;2023-11-21T00:39:02;96902.31;;;6.70;83.82
82171;BME280;71755;48.038;14.346;2023-11-21T00:41:27;96900.66;;;6.69;83.66
82171;BME280;71755;48.038;14.346;2023-11-21T00:43:53;96903.13;;;6.70;83.71
82171;BME280;71755;48.038;14.346;2023-11-21T00:46:20;96909.00;;;6.72;83.42
82171;BME280;71755;48.038;14.346;2023-11-21T00:48:46;96900.47;;;6.70;83.71
82171;BME280;71755;48.038;14.346;2023-11-21T00:51:12;96901.50;;;6.69;83.92
82171;BME280;71755;48.038;14.346;2023-11-21T00:53:38;96901.84;;;6.61;84.56
82171;BME280;71755;48.038;14.346;2023-11-21T00:56:04;96906.69;;;6.64;84.80
82171;BME280;71755;48.038;14.346;2023-11-21T00:58:30;96901.94;;;6.66;84.11
82171;BME280;71755;48.038;14.346;2023-11-21T01:00:56;96906.97;;;6.51;84.17
82171;BME280;71755;48.038;14.346;2023-11-21T01:03:22;96906.84;;;6.46;85.03
82171;BME280;71755;48.038;14.346;2023-11-21T01:05:48;96907.09;;;6.44;85.23
82171;BME280;71755;48.038;14.346;2023-11-21T01:08:15;96907.00;;;6.16;87.07
82171;BME280;71755;48.038;14.346;2023-11-21T01:10:41;96911.28;;;6.17;87.25
82171;BME280;71755;48.038;14.346;2023-11-21T01:13:07;96900.31;;;6.13;87.33
82171;BME280;71755;48.038;14.346;2023-11-21T01:15:36;96904.94;;;6.18;86.56
82171;BME280;71755;48.038;14.346;2023-11-21T01:18:02;96896.03;;;6.24;86.66
82171;BME280;71755;48.038;14.346;2023-11-21T01:20:29;96896.16;;;6.17;86.22
82171;BME280;71755;48.038;14.346;2023-11-21T01:22:54;96898.91;;;6.22;86.49
82171;BME280;71755;48.038;14.346;2023-11-21T01:25:20;96891.53;;;6.24;86.09
82171;BME280;71755;48.038;14.346;2023-11-21T01:27:46;96898.13;;;6.34;85.71
82171;BME280;71755;48.038;14.346;2023-11-21T01:30:12;96893.25;;;6.31;85.21
82171;BME280;71755;48.038;14.346;2023-11-21T01:32:38;96893.84;;;6.33;84.98
82171;BME280;71755;48.038;14.346;2023-11-21T01:35:05;96895.56;;;6.27;84.94
82171;BME280;71755;48.038;14.346;2023-11-21T01:37:32;96890.25;;;6.27;84.59
82171;BME280;71755;48.038;14.346;2023-11-21T01:39:58;96899.84;;;6.16;85.16
82171;BME280;71755;48.038;14.346;2023-11-21T01:42:24;96905.50;;;6.20;84.78
82171;BME280;71755;48.038;14.346;2023-11-21T01:44:50;96907.81;;;5.93;85.46
82171;BME280;71755;48.038;14.346;2023-11-21T01:47:16;96891.75;;;5.88;85.55
82171;BME280;71755;48.038;14.346;2023-11-21T01:49:43;96900.19;;;5.85;85.80
82171;BME280;71755;48.038;14.346;2023-11-21T01:52:09;96901.78;;;5.74;86.93
82171;BME280;71755;48.038;14.346;2023-11-21T01:54:36;96904.91;;;5.59;87.12
82171;BME280;71755;48.038;14.346;2023-11-21T01:57:02;96905.31;;;5.56;87.99
82171;BME280;71755;48.038;14.346;2023-11-21T01:59:35;96899.25;;;5.68;87.90
82171;BME280;71755;48.038;14.346;2023-11-21T02:02:05;96895.09;;;5.72;87.56
82171;BME280;71755;48.038;14.346;2023-11-21T02:04:31;96897.66;;;5.78;86.81
82171;BME280;71755;48.038;14.346;2023-11-21T02:06:57;96900.53;;;5.77;86.31
82171;BME280;71755;48.038;14.346;2023-11-21T02:09:24;96901.69;;;5.81;86.05
82171;BME280;71755;48.038;14.346;2023-11-21T02:11:51;96904.44;;;5.86;85.49
82171;BME280;71755;48.038;14.346;2023-11-21T02:14:17;96901.69;;;5.69;85.86
82171;BME280;71755;48.038;14.346;2023-11-21T02:16:45;96905.22;;;5.51;86.44
82171;BME280;71755;48.038;14.346;2023-11-21T02:19:16;96898.00;;;5.70;85.48
82171;BME280;71755;48.038;14.346;2023-11-21T02:21:45;96894.19;;;5.78;85.15
82171;BME280;71755;48.038;14.346;2023-11-21T02:24:10;96893.16;;;5.79;84.98
82171;BME280;71755;48.038;14.346;2023-11-21T02:26:36;96902.13;;;5.78;84.73
82171;BME280;71755;48.038;14.346;2023-11-21T02:29:02;96907.56;;;5.71;84.90
82171;BME280;71755;48.038;14.346;2023-11-21T02:31:30;96897.75;;;5.72;84.71
82171;BME280;71755;48.038;14.346;2023-11-21T02:33:58;96898.78;;;5.71;84.84
82171;BME280;71755;48.038;14.346;2023-11-21T02:36:24;96901.44;;;5.59;84.56
82171;BME280;71755;48.038;14.346;2023-11-21T02:38:49;96903.59;;;5.39;85.08
82171;BME280;71755;48.038;14.346;2023-11-21T02:41:15;96901.84;;;5.32;85.97
82171;BME280;71755;48.038;14.346;2023-11-21T02:43:41;96900.13;;;5.38;86.32
82171;BME280;71755;48.038;14.346;2023-11-21T02:46:08;96901.16;;;5.37;85.95
82171;BME280;71755;48.038;14.346;2023-11-21T02:48:33;96890.56;;;5.37;85.59
82171;BME280;71755;48.038;14.346;2023-11-21T02:50:59;96898.63;;;5.30;85.68
82171;BME280;71755;48.038;14.346;2023-11-21T02:53:25;96884.91;;;5.33;85.55
82171;BME280;71755;48.038;14.346;2023-11-21T02:55:51;96888.59;;;5.32;86.09
82171;BME280;71755;48.038;14.346;2023-11-21T02:58:17;96887.47;;;5.40;86.25
82171;BME280;71755;48.038;14.346;2023-11-21T03:00:42;96901.75;;;5.39;85.96
82171;BME280;71755;48.038;14.346;2023-11-21T03:03:08;96898.16;;;5.33;86.19
82171;BME280;71755;48.038;14.346;2023-11-21T03:05:34;96904.25;;;5.34;86.71
82171;BME280;71755;48.038;14.346;2023-11-21T03:08:01;96903.22;;;5.35;87.26
82171;BME280;71755;48.038;14.346;2023-11-21T03:10:27;96912.53;;;5.26;87.58
82171;BME280;71755;48.038;14.346;2023-11-21T03:12:52;96907.94;;;5.21;88.60
82171;BME280;71755;48.038;14.346;2023-11-21T03:15:18;96901.16;;;5.25;88.64
82171;BME280;71755;48.038;14.346;2023-11-21T03:17:43;96902.78;;;5.38;88.57
82171;BME280;71755;48.038;14.346;2023-11-21T03:20:09;96894.50;;;5.46;88.05
82171;BME280;71755;48.038;14.346;2023-11-21T03:22:36;96896.34;;;5.57;87.57
82171;BME280;71755;48.038;14.346;2023-11-21T03:25:03;96897.06;;;5.64;86.69
82171;BME280;71755;48.038;14.346;2023-11-21T03:27:30;96898.22;;;5.69;86.38
82171;BME280;71755;48.038;14.346;2023-11-21T03:29:56;96895.69;;;5.74;86.34
82171;BME280;71755;48.038;14.346;2023-11-21T03:32:21;96891.75;;;5.76;86.67
82171;BME280;71755;48.038;14.346;2023-11-21T03:34:55;96890.97;;;5.76;86.26
82171;BME280;71755;48.038;14.346;2023-11-21T03:37:21;96883.34;;;5.79;86.55
82171;BME280;71755;48.038;14.346;2023-11-21T03:39:47;96882.66;;;5.84;86.46
82171;BME280;71755;48.038;14.346;2023-11-21T03:42:13;96875.75;;;5.83;86.53
82171;BME280;71755;48.038;14.346;2023-11-21T03:44:38;96872.06;;;5.84;86.82
82171;BME280;71755;48.038;14.346;2023-11-21T03:47:05;96874.72;;;5.84;87.12
82171;BME280;71755;48.038;14.346;2023-11-21T03:49:30;96867.00;;;5.82;87.14
82171;BME280;71755;48.038;14.346;2023-11-21T03:51:56;96869.53;;;5.77;86.82
82171;BME280;71755;48.038;14.346;2023-11-21T03:54:22;96866.88;;;5.77;86.64
82171;BME280;71755;48.038;14.346;2023-11-21T03:56:48;96864.00;;;5.79;86.17
82171;BME280;71755;48.038;14.346;2023-11-21T03:59:14;96868.66;;;5.95;83.52
82171;BME280;71755;48.038;14.346;2023-11-21T04:01:39;96873.34;;;5.93;85.03
82171;BME280;71755;48.038;14.346;2023-11-21T04:04:05;96871.16;;;5.67;87.82
82171;BME280;71755;48.038;14.346;2023-11-21T04:06:31;96871.81;;;5.39;89.07
82171;BME280;71755;48.038;14.346;2023-11-21T04:08:58;96864.19;;;5.30;89.68
82171;BME280;71755;48.038;14.346;2023-11-21T04:11:24;96864.78;;;5.44;88.46
82171;BME280;71755;48.038;14.346;2023-11-21T04:13:50;96859.03;;;5.47;88.16
82171;BME280;71755;48.038;14.346;2023-11-21T04:16:15;96860.28;;;5.45;88.59
82171;BME280;71755;48.038;14.346;2023-11-21T04:18:41;96862.22;;;5.26;89.61
82171;BME280;71755;48.038;14.346;2023-11-21T04:21:06;96870.44;;;4.94;91.43
82171;BME280;71755;48.038;14.346;2023-11-21T04:23:33;96872.00;;;4.84;92.74
82171;BME280;71755;48.038;14.346;2023-11-21T04:25:59;96881.56;;;4.85;93.03
82171;BME280;71755;48.038;14.346;2023-11-21T04:28:25;96876.63;;;4.88;92.68
82171;BME280;71755;48.038;14.346;2023-11-21T04:30:51;96866.75;;;4.95;92.19
82171;BME280;71755;48.038;14.346;2023-11-21T04:33:17;96871.72;;;5.03;91.78
82171;BME280;71755;48.038;14.346;2023-11-21T04:35:42;96878.41;;;5.06;91.44
82171;BME280;71755;48.038;14.346;2023-11-21T04:38:08;96879.44;;;5.17;90.71
82171;BME280;71755;48.038;14.346;2023-11-21T04:40:33;96882.03;;;5.23;90.62
82171;BME280;71755;48.038;14.346;2023-11-21T04:42:59;96879.16;;;5.37;89.35
82171;BME280;71755;48.038;14.346;2023-11-21T04:45:25;96881.25;;;5.46;88.67
82171;BME280;71755;48.038;14.346;2023-11-21T04:47:50;96881.38;;;5.51;88.50
82171;BME280;71755;48.038;14.346;2023-11-21T04:50:18;96881.38;;;5.51;88.52
82171;BME280;71755;48.038;14.346;2023-11-21T04:52:44;96879.06;;;5.55;88.44
82171;BME280;71755;48.038;14.346;2023-11-21T04:55:10;96883.31;;;5.56;88.13
82171;BME280;71755;48.038;14.346;2023-11-21T04:57:36;96882.09;;;5.58;88.19
82171;BME280;71755;48.038;14.346;2023-11-21T05:00:02;96882.44;;;5.62;88.02
82171;BME280;71755;48.038;14.346;2023-11-21T05:02:31;96880.72;;;5.68;87.42
82171;BME280;71755;48.038;14.346;2023-11-21T05:04:59;96884.84;;;5.75;87.01
82171;BME280;71755;48.038;14.346;2023-11-21T05:07:26;96893.72;;;5.81;86.43
82171;BME280;71755;48.038;14.346;2023-11-21T05:09:55;96898.56;;;5.84;85.78
82171;BME280;71755;48.038;14.346;2023-11-21T05:12:24;96895.81;;;5.90;85.47
82171;BME280;71755;48.038;14.346;2023-11-21T05:14:50;96893.97;;;5.91;85.07
82171;BME280;71755;48.038;14.346;2023-11-21T05:17:16;96894.22;;;5.89;85.29
82171;BME280;71755;48.038;14.346;2023-11-21T05:19:42;96900.91;;;5.92;84.86
82171;BME280;71755;48.038;14.346;2023-11-21T05:22:08;96902.28;;;5.94;84.96
82171;BME280;71755;48.038;14.346;2023-11-21T05:24:34;96905.16;;;5.93;84.81
82171;BME280;71755;48.038;14.346;2023-11-21T05:27:00;96902.25;;;5.83;85.74
82171;BME280;71755;48.038;14.346;2023-11-21T05:29:26;96895.69;;;5.74;86.03
82171;BME280;71755;48.038;14.346;2023-11-21T05:31:52;96901.78;;;5.74;86.70
82171;BME280;71755;48.038;14.346;2023-11-21T05:34:18;96893.72;;;5.69;86.98
82171;BME280;71755;48.038;14.346;2023-11-21T05:36:46;96898.69;;;5.65;87.70
82171;BME280;71755;48.038;14.346;2023-11-21T05:39:11;96893.13;;;5.55;88.13
82171;BME280;71755;48.038;14.346;2023-11-21T05:41:37;96896.94;;;5.71;86.68
82171;BME280;71755;48.038;14.346;2023-11-21T05:44:02;96901.31;;;5.77;86.33
82171;BME280;71755;48.038;14.346;2023-11-21T05:46:28;96904.31;;;5.81;85.95
82171;BME280;71755;48.038;14.346;2023-11-21T05:48:53;96904.59;;;5.91;85.01
82171;BME280;71755;48.038;14.346;2023-11-21T05:51:20;96905.63;;;5.90;85.74
82171;BME280;71755;48.038;14.346;2023-11-21T05:53:46;96895.00;;;5.90;85.38
82171;BME280;71755;48.038;14.346;2023-11-21T05:56:12;96896.94;;;5.83;86.31
82171;BME280;71755;48.038;14.346;2023-11-21T05:58:39;96904.78;;;5.66;87.89
82171;BME280;71755;48.038;14.346;2023-11-21T06:01:05;96906.06;;;5.63;87.83
82171;BME280;71755;48.038;14.346;2023-11-21T06:03:33;96913.88;;;5.58;88.50
82171;BME280;71755;48.038;14.346;2023-11-21T06:05:58;96913.97;;;5.52;88.26
82171;BME280;71755;48.038;14.346;2023-11-21T06:08:24;96916.13;;;5.43;89.43
82171;BME280;71755;48.038;14.346;2023-11-21T06:10:50;96922.44;;;5.30;90.75
82171;BME280;71755;48.038;14.346;2023-11-21T06:13:15;96926.47;;;5.21;91.12
82171;BME280;71755;48.038;14.346;2023-11-21T06:15:41;96923.72;;;5.28;90.77
82171;BME280;71755;48.038;14.346;2023-11-21T06:18:07;96923.50;;;5.41;91.02
82171;BME280;71755;48.038;14.346;2023-11-21T06:20:35;96920.19;;;5.46;90.14
82171;BME280;71755;48.038;14.346;2023-11-21T06:23:02;96924.34;;;5.53;89.31
82171;BME280;71755;48.038;14.346;2023-11-21T06:25:29;96925.38;;;5.52;89.51
82171;BME280;71755;48.038;14.346;2023-11-21T06:27:58;96921.22;;;5.56;89.38
82171;BME280;71755;48.038;14.346;2023-11-21T06:30:24;96924.03;;;5.61;89.81
82171;BME280;71755;48.038;14.346;2023-11-21T06:32:50;96927.25;;;5.63;89.44
82171;BME280;71755;48.038;14.346;2023-11-21T06:35:16;96933.25;;;5.71;89.66
82171;BME280;71755;48.038;14.346;2023-11-21T06:37:42;96933.47;;;5.81;89.82
82171;BME280;71755;48.038;14.346;2023-11-21T06:40:13;96935.22;;;5.87;89.61
82171;BME280;71755;48.038;14.346;2023-11-21T06:42:43;96938.22;;;5.90;89.31
82171;BME280;71755;48.038;14.346;2023-11-21T06:45:10;96955.28;;;5.94;89.54
82171;BME280;71755;48.038;14.346;2023-11-21T06:47:37;96950.59;;;5.97;89.81
82171;BME280;71755;48.038;14.346;2023-11-21T06:50:03;96951.63;;;5.95;89.91
82171;BME280;71755;48.038;14.346;2023-11-21T06:52:29;96955.28;;;5.94;89.51
82171;BME280;71755;48.038;14.346;2023-11-21T06:54:55;96959.06;;;5.87;89.38
82171;BME280;71755;48.038;14.346;2023-11-21T06:57:24;96964.38;;;5.87;89.80
82171;BME280;71755;48.038;14.346;2023-11-21T06:59:50;96961.13;;;5.85;90.08
82171;BME280;71755;48.038;14.346;2023-11-21T07:02:16;96961.81;;;5.80;90.41
82171;BME280;71755;48.038;14.346;2023-11-21T07:04:46;96971.50;;;5.75;90.92
82171;BME280;71755;48.038;14.346;2023-11-21T07:07:12;96973.56;;;5.61;92.38
82171;BME280;71755;48.038;14.346;2023-11-21T07:09:37;96981.13;;;5.57;93.46
82171;BME280;71755;48.038;14.346;2023-11-21T07:12:03;96973.06;;;5.52;94.13
82171;BME280;71755;48.038;14.346;2023-11-21T07:14:31;96968.22;;;5.49;94.53
82171;BME280;71755;48.038;14.346;2023-11-21T07:16:57;96974.88;;;5.52;95.05
82171;BME280;71755;48.038;14.346;2023-11-21T07:19:23;96967.97;;;5.51;95.36
82171;BME280;71755;48.038;14.346;2023-11-21T07:21:50;96965.69;;;5.54;95.60
82171;BME280;71755;48.038;14.346;2023-11-21T07:24:18;96971.22;;;5.53;95.37
82171;BME280;71755;48.038;14.346;2023-11-21T07:26:44;96969.81;;;5.50;95.91
82171;BME280;71755;48.038;14.346;2023-11-21T07:29:09;96972.25;;;5.52;96.25
82171;BME280;71755;48.038;14.346;2023-11-21T07:31:37;96972.59;;;5.55;96.28
82171;BME280;71755;48.038;14.346;2023-11-21T07:34:03;96977.91;;;5.55;96.31
82171;BME280;71755;48.038;14.346;2023-11-21T07:36:29;96975.44;;;5.42;97.37
82171;BME280;71755;48.038;14.346;2023-11-21T07:38:54;96985.34;;;5.35;98.45
82171;BME280;71755;48.038;14.346;2023-11-21T07:41:20;96983.59;;;5.29;99.39
82171;BME280;71755;48.038;14.346;2023-11-21T07:43:46;96984.75;;;5.33;99.57
82171;BME280;71755;48.038;14.346;2023-11-21T07:46:13;96985.69;;;5.39;99.89
82171;BME280;71755;48.038;14.346;2023-11-21T07:48:40;96985.91;;;5.37;99.89
82171;BME280;71755;48.038;14.346;2023-11-21T07:51:07;96993.41;;;5.40;100.00
82171;BME280;71755;48.038;14.346;2023-11-21T07:53:33;96992.59;;;5.40;100.00
82171;BME280;71755;48.038;14.346;2023-11-21T07:56:03;96991.69;;;5.46;100.00
82171;BME280;71755;48.038;14.346;2023-11-21T07:58:29;96993.09;;;5.48;100.00
82171;BME280;71755;48.038;14.346;2023-11-21T08:00:56;96987.56;;;5.50;100.00
82171;BME280;71755;48.038;14.346;2023-11-21T08:03:22;96987.91;;;5.53;100.00
82171;BME280;71755;48.038;14.346;2023-11-21T08:05:47;96989.69;;;5.59;100.00
82171;BME280;71755;48.038;14.346;2023-11-21T08:08:13;96995.91;;;5.65;100.00
82171;BME280;71755;48.038;14.346;2023-11-21T08:10:38;96995.34;;;5.63;100.00
82171;BME280;71755;48.038;14.346;2023-11-21T08:13:04;96991.41;;;5.65;100.00
82171;BME280;71755;48.038;14.346;2023-11-21T08:15:30;96998.91;;;5.69;100.00
82171;BME280;71755;48.038;14.346;2023-11-21T08:17:59;96988.91;;;5.71;100.00
82171;BME280;71755;48.038;14.346;2023-11-21T08:20:24;96989.25;;;5.74;100.00
82171;BME280;71755;48.038;14.346;2023-11-21T08:22:50;96987.28;;;5.81;100.00
82171;BME280;71755;48.038;14.346;2023-11-21T08:25:22;96981.44;;;5.91;100.00
82171;BME280;71755;48.038;14.346;2023-11-21T08:27:47;96981.72;;;6.01;100.00
82171;BME280;71755;48.038;14.346;2023-11-21T08:30:14;96986.56;;;6.04;100.00
82171;BME280;71755;48.038;14.346;2023-11-21T08:32:42;96980.34;;;6.10;100.00
82171;BME280;71755;48.038;14.346;2023-11-21T08:35:08;96979.06;;;6.24;100.00
82171;BME280;71755;48.038;14.346;2023-11-21T08:37:35;96978.03;;;6.25;99.79
82171;BME280;71755;48.038;14.346;2023-11-21T08:40:03;96979.88;;;6.37;99.49
82171;BME280;71755;48.038;14.346;2023-11-21T08:42:29;96974.00;;;6.46;99.39
82171;BME280;71755;48.038;14.346;2023-11-21T08:44:58;96973.41;;;6.56;98.86
82171;BME280;71755;48.038;14.346;2023-11-21T08:47:23;96977.88;;;6.67;99.67
82171;BME280;71755;48.038;14.346;2023-11-21T08:49:52;96976.50;;;6.65;98.82
82171;BME280;71755;48.038;14.346;2023-11-21T08:52:20;96975.59;;;6.71;98.07
82171;BME280;71755;48.038;14.346;2023-11-21T08:54:48;96977.88;;;6.67;98.83
82171;BME280;71755;48.038;14.346;2023-11-21T08:57:24;96983.78;;;6.69;98.41
82171;BME280;71755;48.038;14.346;2023-11-21T08:59:50;96988.50;;;6.79;99.31
82171;BME280;71755;48.038;14.346;2023-11-21T09:02:21;96987.66;;;6.90;98.29
82171;BME280;71755;48.038;14.346;2023-11-21T09:04:49;96985.31;;;6.94;95.83
82171;BME280;71755;48.038;14.346;2023-11-21T09:07:16;96987.03;;;7.00;97.09
82171;BME280;71755;48.038;14.346;2023-11-21T09:09:41;96987.59;;;7.02;96.59
82171;BME280;71755;48.038;14.346;2023-11-21T09:12:07;96979.97;;;7.05;96.08
82171;BME280;71755;48.038;14.346;2023-11-21T09:14:37;96983.78;;;7.09;95.15
82171;BME280;71755;48.038;14.346;2023-11-21T09:17:05;96986.22;;;7.11;95.55
82171;BME280;71755;48.038;14.346;2023-11-21T09:19:40;96984.22;;;7.18;94.86
82171;BME280;71755;48.038;14.346;2023-11-21T09:22:06;96984.22;;;7.18;94.27
82171;BME280;71755;48.038;14.346;2023-11-21T09:24:32;96983.19;;;7.19;94.08
82171;BME280;71755;48.038;14.346;2023-11-21T09:26:58;96985.78;;;7.31;95.25
82171;BME280;71755;48.038;14.346;2023-11-21T09:29:25;96990.78;;;7.27;93.84
82171;BME280;71755;48.038;14.346;2023-11-21T09:31:51;96980.72;;;7.29;93.15
82171;BME280;71755;48.038;14.346;2023-11-21T09:34:17;96984.03;;;7.36;93.24
82171;BME280;71755;48.038;14.346;2023-11-21T09:36:45;96984.91;;;7.42;93.91
82171;BME280;71755;48.038;14.346;2023-11-21T09:39:13;96989.88;;;7.50;93.46
82171;BME280;71755;48.038;14.346;2023-11-21T09:41:50;96991.72;;;7.49;92.42
82171;BME280;71755;48.038;14.346;2023-11-21T09:44:20;96984.56;;;7.50;92.15
82171;BME280;71755;48.038;14.346;2023-11-21T09:46:48;97000.03;;;7.53;93.06
82171;BME280;71755;48.038;14.346;2023-11-21T09:49:16;96986.75;;;7.53;93.24
82171;BME280;71755;48.038;14.346;2023-11-21T09:51:44;96987.94;;;7.45;92.58
82171;BME280;71755;48.038;14.346;2023-11-21T09:54:10;96988.19;;;7.44;92.65
82171;BME280;71755;48.038;14.346;2023-11-21T09:56:37;96987.38;;;7.43;93.17
82171;BME280;71755;48.038;14.346;2023-11-21T09:59:03;96979.41;;;7.43;93.13
82171;BME280;71755;48.038;14.346;2023-11-21T10:01:33;96979.03;;;7.40;92.69
82171;BME280;71755;48.038;14.346;2023-11-21T10:04:02;96976.75;;;7.43;93.45
82171;BME280;71755;48.038;14.346;2023-11-21T10:06:28;96966.47;;;7.35;93.13
82171;BME280;71755;48.038;14.346;2023-11-21T10:08:54;96970.16;;;7.34;93.35
82171;BME280;71755;48.038;14.346;2023-11-21T10:11:25;96971.53;;;7.37;93.51
82171;BME280;71755;48.038;14.346;2023-11-21T10:13:55;96976.53;;;7.33;93.52
82171;BME280;71755;48.038;14.346;2023-11-21T10:16:25;96972.75;;;7.29;92.67
82171;BME280;71755;48.038;14.346;2023-11-21T10:18:52;96980.78;;;7.34;92.98
82171;BME280;71755;48.038;14.346;2023-11-21T10:21:21;96975.56;;;7.39;93.39
82171;BME280;71755;48.038;14.346;2023-11-21T10:23:47;96974.88;;;7.44;93.36
82171;BME280;71755;48.038;14.346;2023-11-21T10:26:13;96978.34;;;7.44;92.45
82171;BME280;71755;48.038;14.346;2023-11-21T10:28:57;96966.28;;;7.53;92.52
82171;BME280;71755;48.038;14.346;2023-11-21T10:31:23;96967.97;;;7.60;92.14
82171;BME280;71755;48.038;14.346;2023-11-21T10:33:50;96966.13;;;7.60;90.93
82171;BME280;71755;48.038;14.346;2023-11-21T10:36:28;96970.81;;;7.70;91.48
82171;BME280;71755;48.038;14.346;2023-11-21T10:38:54;96972.00;;;7.79;92.02
82171;BME280;71755;48.038;14.346;2023-11-21T10:41:23;96971.38;;;7.72;90.58
82171;BME280;71755;48.038;14.346;2023-11-21T10:43:52;96970.81;;;7.70;89.85
82171;BME280;71755;48.038;14.346;2023-11-21T10:46:18;96979.59;;;7.70;89.84
82171;BME280;71755;48.038;14.346;2023-11-21T10:48:44;96973.38;;;7.65;90.02
82171;BME280;71755;48.038;14.346;2023-11-21T10:51:11;96976.13;;;7.70;89.86
82171;BME280;71755;48.038;14.346;2023-11-21T10:53:40;96977.00;;;7.59;89.79
82171;BME280;71755;48.038;14.346;2023-11-21T10:56:08;96977.63;;;7.49;89.23
82171;BME280;71755;48.038;14.346;2023-11-21T10:58:43;96985.97;;;7.41;91.07
82171;BME280;71755;48.038;14.346;2023-11-21T11:01:09;96979.97;;;7.17;91.68
82171;BME280;71755;48.038;14.346;2023-11-21T11:03:39;96982.63;;;7.17;92.77
82171;BME280;71755;48.038;14.346;2023-11-21T11:06:07;96981.66;;;7.23;92.93
82171;BME280;71755;48.038;14.346;2023-11-21T11:08:38;96978.63;;;7.31;92.64
82171;BME280;71755;48.038;14.346;2023-11-21T11:11:05;96980.94;;;7.28;92.51
82171;BME280;71755;48.038;14.346;2023-11-21T11:13:31;96979.97;;;7.17;93.21
82171;BME280;71755;48.038;14.346;2023-11-21T11:16:00;96976.97;;;7.13;93.41
82171;BME280;71755;48.038;14.346;2023-11-21T11:18:27;96979.63;;;7.13;93.18
82171;BME280;71755;48.038;14.346;2023-11-21T11:20:57;96979.75;;;7.07;93.21
82171;BME280;71755;48.038;14.346;2023-11-21T11:28:27;96983.75;;;7.21;92.83
82171;BME280;71755;48.038;14.346;2023-11-21T11:31:04;96983.41;;;7.17;93.48
82171;BME280;71755;48.038;14.346;2023-11-21T11:33:34;96986.09;;;7.06;94.00
82171;BME280;71755;48.038;14.346;2023-11-21T11:38:31;96985.00;;;6.90;95.85
82171;BME280;71755;48.038;14.346;2023-11-21T11:41:02;96984.44;;;6.76;96.52
82171;BME280;71755;48.038;14.346;2023-11-21T11:43:31;96982.28;;;6.73;97.35
82171;BME280;71755;48.038;14.346;2023-11-21T11:46:09;96982.50;;;6.60;97.42
82171;BME280;71755;48.038;14.346;2023-11-21T11:48:38;96980.78;;;6.54;98.52
82171;BME280;71755;48.038;14.346;2023-11-21T11:51:05;96975.94;;;6.51;98.57
82171;BME280;71755;48.038;14.346;2023-11-21T11:53:43;96981.25;;;6.51;98.86
82171;BME280;71755;48.038;14.346;2023-11-21T11:58:47;96981.47;;;6.61;99.25
82171;BME280;71755;48.038;14.346;2023-11-21T12:01:13;96982.28;;;6.62;98.88
82171;BME280;71755;48.038;14.346;2023-11-21T12:03:39;96996.00;;;6.58;99.03
82171;BME280;71755;48.038;14.346;2023-11-21T12:06:05;96986.19;;;6.59;99.23
82171;BME280;71755;48.038;14.346;2023-11-21T12:08:32;96986.19;;;6.59;99.45
82171;BME280;71755;48.038;14.346;2023-11-21T12:10:58;96984.00;;;6.56;99.53
82171;BME280;71755;48.038;14.346;2023-11-21T12:13:24;96993.81;;;6.55;99.87
82171;BME280;71755;48.038;14.346;2023-11-21T12:15:49;96992.31;;;6.59;100.00
82171;BME280;71755;48.038;14.346;2023-11-21T12:18:15;96990.81;;;6.64;100.00
82171;BME280;71755;48.038;14.346;2023-11-21T12:20:41;96992.41;;;6.65;100.00
82171;BME280;71755;48.038;14.346;2023-11-21T12:23:08;96997.38;;;6.61;100.00
82171;BME280;71755;48.038;14.346;2023-11-21T12:25:40;96993.00;;;6.55;100.00
82171;BME280;71755;48.038;14.346;2023-11-21T12:28:06;96987.69;;;6.55;100.00
82171;BME280;71755;48.038;14.346;2023-11-21T12:30:33;96985.28;;;6.53;100.00
82171;BME280;71755;48.038;14.346;2023-11-21T12:33:01;96982.97;;;6.57;100.00
82171;BME280;71755;48.038;14.346;2023-11-21T12:35:28;96979.97;;;6.53;100.00
82171;BME280;71755;48.038;14.346;2023-11-21T12:37:55;96990.34;;;6.55;100.00
82171;BME280;71755;48.038;14.346;2023-11-21T12:40:22;96992.06;;;6.61;100.00
82171;BME280;71755;48.038;14.346;2023-11-21T12:42:50;96983.41;;;6.66;100.00
82171;BME280;71755;48.038;14.346;2023-11-21T12:47:46;96981.00;;;6.76;100.00
82171;BME280;71755;48.038;14.346;2023-11-21T12:50:14;96991.84;;;6.74;99.41
82171;BME280;71755;48.038;14.346;2023-11-21T12:52:41;96979.63;;;6.73;99.76
82171;BME280;71755;48.038;14.346;2023-11-21T12:55:13;96980.91;;;6.71;99.77
82171;BME280;71755;48.038;14.346;2023-11-21T12:57:50;96991.75;;;6.69;99.79
82171;BME280;71755;48.038;14.346;2023-11-21T13:00:33;96987.25;;;6.70;99.92
82171;BME280;71755;48.038;14.346;2023-11-21T13:03:02;96993.22;;;6.65;98.89
82171;BME280;71755;48.038;14.346;2023-11-21T13:05:33;96985.97;;;6.61;98.65
82171;BME280;71755;48.038;14.346;2023-11-21T13:08:00;96985.84;;;6.67;99.69
82171;BME280;71755;48.038;14.346;2023-11-21T13:10:28;96982.13;;;6.68;99.57
82171;BME280;71755;48.038;14.346;2023-11-21T13:12:59;96981.22;;;6.63;99.53